createdAt,value
2022-12-01T00:01:06.702Z,99164.19
2022-12-01T00:03:33.919Z,99165.81
2022-12-01T00:06:01.424Z,99159.63
2022-12-01T00:08:29.086Z,99163.38
2022-12-01T00:10:55.470Z,99164.19
2022-12-01T00:13:21.846Z,99172.47
2022-12-01T00:15:48.242Z,99165.47
2022-12-01T00:18:14.642Z,99164.19
2022-12-01T00:20:41.050Z,99174.91
2022-12-01T00:23:07.470Z,99162.31
2022-12-01T00:25:33.890Z,99163.13
2022-12-01T00:28:00.333Z,99152.06
2022-12-01T00:30:26.700Z,99164.19
2022-12-01T00:32:53.108Z,99163.13
2022-12-01T00:35:19.669Z,99162.56
2022-12-01T00:37:46.094Z,99166.53
2022-12-01T00:40:13.038Z,99176.22
2022-12-01T00:42:39.439Z,99165.94
2022-12-01T00:45:06.518Z,99163.75
2022-12-01T00:47:32.925Z,99162.34
2022-12-01T00:49:59.299Z,99166.66
2022-12-01T00:52:25.635Z,99165.25
2022-12-01T00:54:52.021Z,99170.28
2022-12-01T00:57:18.413Z,99172.41
2022-12-01T00:59:44.910Z,99175.66
2022-12-01T01:02:11.368Z,99164.09
2022-12-01T01:04:37.878Z,99172.41
2022-12-01T01:07:04.398Z,99171.59
2022-12-01T01:09:32.131Z,99165.97
2022-12-01T01:11:58.705Z,99176.22
2022-12-01T01:14:25.309Z,99176.00
2022-12-01T01:16:51.780Z,99172.28
2022-12-01T01:19:18.567Z,99176.97
2022-12-01T01:21:44.896Z,99169.59
2022-12-01T01:24:11.296Z,99181.97
2022-12-01T01:26:37.945Z,99178.22
2022-12-01T01:29:07.483Z,99182.06
2022-12-01T01:31:35.121Z,99181.72
2022-12-01T01:34:01.657Z,99179.28
2022-12-01T01:36:28.197Z,99188.94
2022-12-01T01:38:55.229Z,99184.88
2022-12-01T01:41:22.838Z,99190.00
2022-12-01T01:44:02.809Z,99190.00
2022-12-01T01:46:31.758Z,99190.69
2022-12-01T01:49:01.945Z,99183.38
2022-12-01T01:51:35.265Z,99182.91
2022-12-01T01:54:09.583Z,99188.03
2022-12-01T01:56:37.453Z,99185.69
2022-12-01T01:59:04.524Z,99183.34
2022-12-01T02:01:31.375Z,99183.59
2022-12-01T02:03:58.446Z,99182.91
2022-12-01T02:06:25.253Z,99183.72
2022-12-01T02:08:51.764Z,99183.13
2022-12-01T02:11:54.142Z,99182.53
2022-12-01T02:14:58.250Z,99175.28
2022-12-01T02:17:27.654Z,99181.97
2022-12-01T02:20:00.181Z,99179.84
2022-12-01T02:22:54.007Z,99178.22
2022-12-01T02:25:35.405Z,99174.97
2022-12-01T02:28:20.448Z,99178.59
2022-12-01T02:31:05.555Z,99173.91
2022-12-01T02:33:51.206Z,99180.09
2022-12-01T02:36:28.203Z,99176.25
2022-12-01T02:39:02.913Z,99174.97
2022-12-01T02:41:37.220Z,99171.13
2022-12-01T02:44:12.882Z,99174.03
2022-12-01T02:46:49.369Z,99172.75
2022-12-01T02:49:24.853Z,99169.16
2022-12-01T02:51:54.207Z,99167.97
2022-12-01T02:54:21.824Z,99172.19
2022-12-01T02:56:51.964Z,99170.88
2022-12-01T02:59:18.384Z,99170.19
2022-12-01T03:01:52.203Z,99175.56
2022-12-01T03:04:18.617Z,99178.25
2022-12-01T03:07:06.942Z,99170.88
2022-12-01T03:09:47.275Z,99175.44
2022-12-01T03:12:20.179Z,99167.97
2022-12-01T03:15:04.495Z,99172.88
2022-12-01T03:17:41.947Z,99164.84
2022-12-01T03:20:37.327Z,99169.03
2022-12-01T03:23:15.128Z,99167.63
2022-12-01T03:25:46.525Z,99166.00
2022-12-01T03:28:23.146Z,99172.19
2022-12-01T03:30:55.718Z,99159.34
2022-12-01T03:33:33.759Z,99164.13
2022-12-01T03:36:06.982Z,99167.28
2022-12-01T03:38:36.360Z,99161.34
2022-12-01T03:41:12.319Z,99157.84
2022-12-01T03:43:43.926Z,99168.81
2022-12-01T03:46:28.129Z,99169.84
2022-12-01T03:48:54.779Z,99169.84
2022-12-01T03:51:40.977Z,99168.19
2022-12-01T03:54:12.975Z,99170.66
2022-12-01T03:56:46.796Z,99173.13
2022-12-01T03:59:14.648Z,99170.66
2022-12-01T04:01:41.214Z,99164.00
2022-12-01T04:04:12.890Z,99166.47
2022-12-01T04:06:42.230Z,99167.75
2022-12-01T04:09:08.629Z,99160.75
2022-12-01T04:11:53.673Z,99164.69
2022-12-01T04:14:20.197Z,99162.38
2022-12-01T04:16:46.586Z,99163.28
2022-12-01T04:19:12.998Z,99167.25
2022-12-01T04:21:39.355Z,99163.06
2022-12-01T04:24:06.397Z,99167.72
2022-12-01T04:26:35.461Z,99167.84
2022-12-01T04:29:05.166Z,99166.56
2022-12-01T04:31:31.953Z,99167.38
2022-12-01T04:33:59.110Z,99172.41
2022-12-01T04:36:26.711Z,99170.66
2022-12-01T04:38:53.154Z,99175.53
2022-12-01T04:41:19.961Z,99168.69
2022-12-01T04:43:46.422Z,99169.50
2022-12-01T04:46:14.597Z,99169.13
2022-12-01T04:48:41.009Z,99177.06
2022-12-01T04:51:08.497Z,99181.94
2022-12-01T04:53:36.034Z,99174.47
2022-12-01T04:56:03.006Z,99163.75
2022-12-01T04:58:30.715Z,99163.06
2022-12-01T05:01:26.681Z,99173.69
2022-12-01T05:03:53.189Z,99171.44
2022-12-01T05:06:22.446Z,99172.50
2022-12-01T05:08:49.436Z,99173.19
2022-12-01T05:11:16.976Z,99177.63
2022-12-01T05:13:45.735Z,99181.72
2022-12-01T05:16:15.225Z,99179.84
2022-12-01T05:18:42.046Z,99180.31
2022-12-01T05:21:10.686Z,99184.41
2022-12-01T05:23:38.594Z,99179.03
2022-12-01T05:26:07.613Z,99186.88
2022-12-01T05:28:34.115Z,99193.84
2022-12-01T05:31:00.848Z,99181.13
2022-12-01T05:33:29.460Z,99192.78
2022-12-01T05:35:56.248Z,99191.25
2022-12-01T05:38:22.783Z,99187.44
2022-12-01T05:40:51.458Z,99183.34
2022-12-01T05:43:19.409Z,99183.13
2022-12-01T05:45:49.880Z,99177.06
2022-12-01T05:48:17.746Z,99179.38
2022-12-01T05:50:44.523Z,99175.06
2022-12-01T05:53:12.741Z,99186.59
2022-12-01T05:55:39.206Z,99188.22
2022-12-01T05:58:05.731Z,99186.72
2022-12-01T06:00:32.574Z,99189.41
2022-12-01T06:02:59.025Z,99194.78
2022-12-01T06:05:25.441Z,99190.47
2022-12-01T06:07:52.057Z,99191.03
2022-12-01T06:10:18.589Z,99192.69
2022-12-01T06:12:45.019Z,99195.59
2022-12-01T06:15:12.699Z,99194.41
2022-12-01T06:17:40.597Z,99196.06
2022-12-01T06:20:08.490Z,99200.72
2022-12-01T06:22:34.891Z,99206.66
2022-12-01T06:25:01.502Z,99189.75
2022-12-01T06:27:27.884Z,99197.22
2022-12-01T06:29:54.402Z,99198.03
2022-12-01T06:32:20.893Z,99203.16
2022-12-01T06:34:47.348Z,99195.94
2022-12-01T06:37:15.854Z,99207.50
2022-12-01T06:39:43.374Z,99208.63
2022-12-01T06:42:10.486Z,99205.59
2022-12-01T06:44:37.528Z,99210.59
2022-12-01T06:47:04.290Z,99204.41
2022-12-01T06:49:31.099Z,99211.31
2022-12-01T06:51:57.481Z,99208.88
2022-12-01T06:54:23.867Z,99217.00
2022-12-01T06:56:50.389Z,99213.88
2022-12-01T06:59:17.387Z,99221.31
2022-12-01T07:01:44.099Z,99221.69
2022-12-01T07:04:10.512Z,99216.31
2022-12-01T07:06:37.833Z,99220.50
2022-12-01T07:09:04.374Z,99213.06
2022-12-01T07:11:32.298Z,99222.38
2022-12-01T07:13:58.739Z,99227.63
2022-12-01T07:16:25.410Z,99224.72
2022-12-01T07:18:52.582Z,99230.88
2022-12-01T07:21:19.326Z,99228.88
2022-12-01T07:23:45.749Z,99227.72
2022-12-01T07:26:17.795Z,99222.94
2022-12-01T07:28:44.920Z,99228.63
2022-12-01T07:31:14.924Z,99231.69
2022-12-01T07:33:41.459Z,99235.44
2022-12-01T07:36:10.276Z,99232.50
2022-12-01T07:38:38.417Z,99222.38
2022-12-01T07:41:10.203Z,99226.22
2022-12-01T07:43:36.910Z,99232.75
2022-12-01T07:46:22.644Z,99230.91
2022-12-01T07:48:50.695Z,99227.03
2022-12-01T07:51:17.726Z,99229.50
2022-12-01T07:53:45.617Z,99223.91
2022-12-01T07:56:13.542Z,99227.88
2022-12-01T07:58:41.550Z,99222.97
2022-12-01T08:01:13.936Z,99228.78
2022-12-01T08:03:41.336Z,99229.00
2022-12-01T08:06:08.653Z,99238.09
2022-12-01T08:08:37.175Z,99246.50
2022-12-01T08:11:24.544Z,99255.84
2022-12-01T08:13:52.289Z,99248.38
2022-12-01T08:16:20.647Z,99257.72
2022-12-01T08:18:47.549Z,99251.63
2022-12-01T08:21:16.773Z,99252.66
2022-12-01T08:23:44.665Z,99250.22
2022-12-01T08:26:19.188Z,99254.28
2022-12-01T08:28:46.450Z,99259.44
2022-12-01T08:31:25.474Z,99255.13
2022-12-01T08:33:53.541Z,99258.97
2022-12-01T08:36:21.388Z,99255.47
2022-12-01T08:38:51.153Z,99255.94
2022-12-01T08:41:17.984Z,99255.13
2022-12-01T08:44:01.251Z,99256.28
2022-12-01T08:46:31.599Z,99262.22
2022-12-01T08:48:58.322Z,99254.66
2022-12-01T08:51:25.675Z,99261.41
2022-12-01T08:53:52.285Z,99262.22
2022-12-01T08:56:23.085Z,99264.47
2022-12-01T08:58:50.985Z,99266.69
2022-12-01T09:01:18.817Z,99254.91
2022-12-01T09:03:45.803Z,99260.41
2022-12-01T09:06:13.340Z,99261.59
2022-12-01T09:08:41.153Z,99263.34
2022-12-01T09:11:12.098Z,99259.16
2022-12-01T09:13:39.900Z,99262.88
2022-12-01T09:16:10.127Z,99261.34
2022-12-01T09:18:37.575Z,99252.38
2022-12-01T09:21:26.213Z,99253.28
2022-12-01T09:23:53.736Z,99259.47
2022-12-01T09:26:22.555Z,99262.38
2022-12-01T09:28:54.978Z,99266.09
2022-12-01T09:31:23.646Z,99265.19
2022-12-01T09:34:01.971Z,99272.09
2022-12-01T09:36:30.258Z,99271.50
2022-12-01T09:38:56.798Z,99275.03
2022-12-01T09:41:28.099Z,99268.63
2022-12-01T09:44:25.483Z,99261.50
2022-12-01T09:47:00.702Z,99261.50
2022-12-01T09:49:55.261Z,99252.41
2022-12-01T09:52:24.207Z,99259.41
2022-12-01T09:54:50.667Z,99258.59
2022-12-01T09:57:28.549Z,99262.22
2022-12-01T09:59:56.218Z,99253.81
2022-12-01T10:02:35.684Z,99254.28
2022-12-01T10:05:06.537Z,99249.25
2022-12-01T10:08:00.401Z,99251.34
2022-12-01T10:10:47.228Z,99245.41
2022-12-01T10:13:22.158Z,99236.44
2022-12-01T10:15:54.745Z,99241.31
2022-12-01T10:18:42.675Z,99236.31
2022-12-01T10:21:46.831Z,99239.00
2022-12-01T10:24:37.719Z,99227.56
2022-12-01T10:27:35.051Z,99227.22
2022-12-01T10:30:10.617Z,99229.78
2022-12-01T10:32:53.639Z,99225.69
2022-12-01T10:35:23.278Z,99219.53
2022-12-01T10:37:59.586Z,99216.25
2022-12-01T10:40:27.629Z,99214.59
2022-12-01T10:42:54.382Z,99208.81
2022-12-01T10:45:26.397Z,99212.06
2022-12-01T10:48:12.969Z,99209.13
2022-12-01T10:50:39.570Z,99209.94
2022-12-01T10:53:05.970Z,99207.88
2022-12-01T10:55:46.390Z,99213.81
2022-12-01T10:58:16.956Z,99209.03
2022-12-01T11:00:59.566Z,99210.19
2022-12-01T11:03:35.579Z,99210.09
2022-12-01T11:06:04.922Z,99209.72
2022-12-01T11:08:45.583Z,99200.41
2022-12-01T11:11:27.676Z,99195.94
2022-12-01T11:13:55.638Z,99188.25
2022-12-01T11:16:43.819Z,99190.81
2022-12-01T11:19:27.284Z,99183.81
2022-12-01T11:21:59.707Z,99186.13
2022-12-01T11:24:44.648Z,99184.50
2022-12-01T11:29:57.190Z,99179.59
2022-12-01T11:32:30.004Z,99171.31
2022-12-01T11:34:59.935Z,99167.13
2022-12-01T11:37:54.821Z,99170.72
2022-12-01T11:40:46.713Z,99162.19
2022-12-01T11:43:34.643Z,99176.66
2022-12-01T11:46:08.982Z,99172.47
2022-12-01T11:48:36.573Z,99175.88
2022-12-01T11:51:28.207Z,99169.34
2022-12-01T11:54:15.253Z,99167.13
2022-12-01T11:56:43.130Z,99168.78
2022-12-01T11:59:24.127Z,99162.44
2022-12-01T12:02:06.732Z,99159.31
2022-12-01T12:04:55.391Z,99155.91
2022-12-01T12:07:25.927Z,99154.38
2022-12-01T12:10:01.200Z,99150.06
2022-12-01T12:12:37.733Z,99150.06
2022-12-01T12:15:34.207Z,99153.69
2022-12-01T12:18:33.867Z,99155.97
2022-12-01T12:21:09.469Z,99151.41
2022-12-01T12:24:01.125Z,99154.00
2022-12-01T12:26:39.236Z,99146.88
2022-12-01T12:29:24.190Z,99147.84
2022-12-01T12:31:50.566Z,99143.34
2022-12-01T12:34:57.030Z,99151.28
2022-12-01T12:37:40.855Z,99141.25
2022-12-01T12:40:18.866Z,99137.06
2022-12-01T12:43:24.872Z,99140.78
2022-12-01T12:46:07.347Z,99133.56
2022-12-01T12:49:11.532Z,99135.19
2022-12-01T12:51:58.428Z,99131.78
2022-12-01T12:54:35.620Z,99130.47
2022-12-01T12:57:19.488Z,99136.53
2022-12-01T12:59:53.722Z,99131.97
2022-12-01T13:02:25.683Z,99127.91
2022-12-01T13:05:02.871Z,99134.91
2022-12-01T13:07:46.879Z,99128.72
2022-12-01T13:10:37.034Z,99129.53
2022-12-01T13:13:23.183Z,99125.47
2022-12-01T13:15:52.413Z,99126.28
2022-12-01T13:18:27.719Z,99124.63
2022-12-01T13:20:57.087Z,99126.63
2022-12-01T13:23:24.405Z,99129.47
2022-12-01T13:25:54.200Z,99129.13
2022-12-01T13:28:25.549Z,99125.28
2022-12-01T13:31:10.720Z,99123.91
2022-12-01T13:33:55.223Z,99124.72
2022-12-01T13:36:45.760Z,99122.59
2022-12-01T13:39:20.423Z,99122.59
2022-12-01T13:42:01.886Z,99123.66
2022-12-01T13:44:42.175Z,99119.59
2022-12-01T13:47:11.558Z,99120.06
2022-12-01T13:49:50.104Z,99121.72
2022-12-01T13:52:22.893Z,99123.09
2022-12-01T13:55:09.818Z,99124.47
2022-12-01T13:57:50.722Z,99125.28
2022-12-01T14:00:34.975Z,99119.34
2022-12-01T14:03:17.000Z,99121.47
2022-12-01T14:05:43.520Z,99124.41
2022-12-01T14:08:28.634Z,99117.97
2022-12-01T14:10:57.922Z,99119.03
2022-12-01T14:13:25.903Z,99116.56
2022-12-01T14:16:00.628Z,99114.94
2022-12-01T14:18:35.133Z,99116.00
2022-12-01T14:21:05.703Z,99120.31
2022-12-01T14:23:35.728Z,99123.56
2022-12-01T14:26:12.152Z,99119.03
2022-12-01T14:29:00.376Z,99125.22
2022-12-01T14:31:32.653Z,99123.91
2022-12-01T14:34:02.614Z,99117.22
2022-12-01T14:36:48.711Z,99108.63
2022-12-01T14:39:19.874Z,99107.00
2022-12-01T14:41:51.942Z,99108.03
2022-12-01T14:44:33.451Z,99102.91
2022-12-01T14:47:06.840Z,99107.44
2022-12-01T14:49:50.926Z,99111.78
2022-12-01T14:52:38.785Z,99109.09
2022-12-01T14:55:13.946Z,99109.09
2022-12-01T14:57:46.214Z,99110.13
2022-12-01T15:00:19.628Z,99107.44
2022-12-01T15:02:54.902Z,99104.53
2022-12-01T15:05:25.792Z,99105.34
2022-12-01T15:08:06.787Z,99102.91
2022-12-01T15:10:50.260Z,99103.72
2022-12-01T15:13:24.507Z,99107.22
2022-12-01T15:16:02.440Z,99100.44
2022-12-01T15:18:34.467Z,99104.75
2022-12-01T15:21:13.542Z,99103.72
2022-12-01T15:23:58.215Z,99103.72
2022-12-01T15:26:28.263Z,99105.34
2022-12-01T15:29:25.198Z,99113.41
2022-12-01T15:31:57.869Z,99112.59
2022-12-01T15:34:31.195Z,99108.03
2022-12-01T15:36:59.014Z,99115.50
2022-12-01T15:39:35.459Z,99106.63
2022-12-01T15:42:03.019Z,99114.47
2022-12-01T15:44:34.101Z,99116.09
2022-12-01T15:47:29.652Z,99114.22
2022-12-01T15:49:56.034Z,99116.66
2022-12-01T15:52:44.517Z,99118.28
2022-12-01T15:55:59.338Z,99113.53
2022-12-01T15:58:36.977Z,99120.28
2022-12-01T16:01:13.297Z,99115.16
2022-12-01T16:04:10.257Z,99116.78
2022-12-01T16:06:40.168Z,99111.41
2022-12-01T16:09:22.420Z,99115.16
2022-12-01T16:12:23.405Z,99116.41
2022-12-01T16:15:07.552Z,99111.28
2022-12-01T16:17:55.691Z,99108.63
2022-12-01T16:20:26.835Z,99108.03
2022-12-01T16:23:21.028Z,99114.47
2022-12-01T16:25:49.303Z,99111.78
2022-12-01T16:28:33.760Z,99117.38
2022-12-01T16:31:05.983Z,99119.47
2022-12-01T16:33:39.114Z,99114.34
2022-12-01T16:36:06.694Z,99113.31
2022-12-01T16:38:34.339Z,99111.44
2022-12-01T16:41:14.297Z,99114.94
2022-12-01T16:44:05.476Z,99103.13
2022-12-01T16:47:30.188Z,99117.16
2022-12-01T16:50:00.753Z,99109.09
2022-12-01T16:53:36.779Z,99110.47
2022-12-01T16:59:31.213Z,99111.53
2022-12-01T17:02:02.725Z,99112.34
2022-12-01T17:04:35.659Z,99112.34
2022-12-01T17:07:19.204Z,99120.97
2022-12-01T17:09:55.157Z,99112.09
2022-12-01T17:12:34.792Z,99116.41
2022-12-01T17:15:10.982Z,99116.41
2022-12-01T17:17:43.639Z,99110.25
2022-12-01T17:20:26.204Z,99104.88
2022-12-01T17:22:56.682Z,99109.19
2022-12-01T17:25:34.336Z,99112.69
2022-12-01T17:28:10.329Z,99109.78
2022-12-01T17:30:36.951Z,99114.34
2022-12-01T17:33:04.042Z,99114.34
2022-12-01T17:35:30.604Z,99110.84
2022-12-01T17:37:56.978Z,99111.41
2022-12-01T17:40:23.504Z,99105.47
2022-12-01T17:42:51.026Z,99109.78
2022-12-01T17:45:18.380Z,99110.59
2022-12-01T17:47:44.889Z,99113.03
2022-12-01T17:50:11.980Z,99115.97
2022-12-01T17:52:38.523Z,99111.88
2022-12-01T17:55:05.437Z,99116.19
2022-12-01T17:57:31.802Z,99119.34
2022-12-01T17:59:58.227Z,99119.59
2022-12-01T18:02:30.739Z,99123.34
2022-12-01T18:04:57.317Z,99125.66
2022-12-01T18:07:23.877Z,99118.09
2022-12-01T18:09:50.774Z,99122.88
2022-12-01T18:12:21.452Z,99125.00
2022-12-01T18:14:51.846Z,99127.66
2022-12-01T18:17:22.072Z,99122.56
2022-12-01T18:19:49.417Z,99121.72
2022-12-01T18:22:16.865Z,99125.47
2022-12-01T18:24:46.715Z,99123.84
2022-12-01T18:27:18.976Z,99118.47
2022-12-01T18:30:10.568Z,99125.47
2022-12-01T18:33:15.637Z,99120.09
2022-12-01T18:35:45.514Z,99113.31
2022-12-01T18:38:29.224Z,99116.00
2022-12-01T18:41:10.712Z,99116.00
2022-12-01T18:46:33.368Z,99111.25
2022-12-01T18:49:16.501Z,99109.38
2022-12-01T18:51:50.205Z,99105.06
2022-12-01T18:54:21.958Z,99100.72
2022-12-01T18:56:59.876Z,99100.72
2022-12-01T18:59:57.449Z,99100.72
2022-12-01T19:02:27.563Z,99098.63
2022-12-01T19:04:54.076Z,99099.69
2022-12-01T19:07:24.023Z,99098.03
2022-12-01T19:09:54.530Z,99095.34
2022-12-01T19:12:20.888Z,99098.63
2022-12-01T19:14:47.394Z,99097.00
2022-12-01T19:17:13.903Z,99104.00
2022-12-01T19:19:40.257Z,99094.09
2022-12-01T19:22:06.793Z,99101.31
2022-12-01T19:24:33.147Z,99091.66
2022-12-01T19:27:00.583Z,99092.91
2022-12-01T19:29:27.000Z,99094.78
2022-12-01T19:31:53.583Z,99093.72
2022-12-01T19:34:21.873Z,99098.03
2022-12-01T19:36:55.294Z,99092.69
2022-12-01T19:39:23.560Z,99095.34
2022-12-01T19:41:51.330Z,99091.84
2022-12-01T19:44:33.540Z,99088.38
2022-12-01T19:47:04.462Z,99098.28
2022-12-01T19:49:40.108Z,99090.47
2022-12-01T19:52:12.208Z,99091.03
2022-12-01T19:55:26.180Z,99092.91
2022-12-01T19:58:03.566Z,99100.16
2022-12-01T20:00:34.463Z,99090.47
2022-12-01T20:03:01.818Z,99093.16
2022-12-01T20:05:28.240Z,99096.66
2022-12-01T20:07:54.841Z,99097.47
2022-12-01T20:10:21.310Z,99099.09
2022-12-01T20:12:47.900Z,99099.09
2022-12-01T20:15:15.274Z,99100.72
2022-12-01T20:17:43.162Z,99097.00
2022-12-01T20:20:11.647Z,99095.97
2022-12-01T20:22:38.751Z,99097.00
2022-12-01T20:25:06.522Z,99097.00
2022-12-01T20:27:33.106Z,99095.13
2022-12-01T20:29:59.613Z,99100.25
2022-12-01T20:32:26.142Z,99097.81
2022-12-01T20:34:52.795Z,99103.19
2022-12-01T20:37:19.416Z,99101.53
2022-12-01T20:39:45.913Z,99102.38
2022-12-01T20:42:12.286Z,99102.38
2022-12-01T20:44:39.942Z,99098.03
2022-12-01T20:47:06.388Z,99092.69
2022-12-01T20:49:32.796Z,99102.03
2022-12-01T20:51:59.185Z,99099.59
2022-12-01T20:54:28.261Z,99100.16
2022-12-01T20:56:55.017Z,99105.28
2022-12-01T20:59:21.447Z,99100.72
2022-12-01T21:01:47.890Z,99095.34
2022-12-01T21:04:14.325Z,99100.72
2022-12-01T21:06:40.825Z,99091.03
2022-12-01T21:09:08.048Z,99090.00
2022-12-01T21:12:00.773Z,99091.03
2022-12-01T21:14:41.205Z,99090.47
2022-12-01T21:17:38.688Z,99086.75
2022-12-01T21:20:08.775Z,99084.31
2022-12-01T21:22:36.324Z,99091.28
2022-12-01T21:25:12.302Z,99088.84
2022-12-01T21:27:38.792Z,99083.50
2022-12-01T21:30:15.230Z,99079.75
2022-12-01T21:32:44.286Z,99082.44
2022-12-01T21:35:21.742Z,99072.75
2022-12-01T21:37:50.650Z,99076.81
2022-12-01T21:40:20.948Z,99083.00
2022-12-01T21:42:47.978Z,99080.06
2022-12-01T21:45:27.186Z,99080.91
2022-12-01T21:47:57.160Z,99072.03
2022-12-01T21:50:25.202Z,99069.13
2022-12-01T21:52:51.571Z,99067.50
2022-12-01T21:55:17.949Z,99073.06
2022-12-01T21:57:52.305Z,99079.25
2022-12-01T22:00:35.969Z,99071.44
2022-12-01T22:03:08.385Z,99065.28
2022-12-01T22:05:40.425Z,99072.25
2022-12-01T22:08:12.607Z,99065.28
2022-12-01T22:11:18.689Z,99062.59
2022-12-01T22:13:47.336Z,99066.91
2022-12-01T22:16:19.414Z,99056.97
2022-12-01T22:18:49.951Z,99056.41
2022-12-01T22:21:22.037Z,99052.09
2022-12-01T22:23:50.077Z,99053.97
2022-12-01T22:26:20.115Z,99055.03
2022-12-01T22:28:51.485Z,99064.47
2022-12-01T22:31:24.449Z,99053.72
2022-12-01T22:34:03.298Z,99052.91
2022-12-01T22:36:33.938Z,99056.66
2022-12-01T22:39:03.040Z,99060.41
2022-12-01T22:41:30.827Z,99049.06
2022-12-01T22:44:01.252Z,99054.22
2022-12-01T22:46:37.779Z,99050.47
2022-12-01T22:49:23.530Z,99057.72
2022-12-01T22:52:24.103Z,99048.84
2022-12-01T22:54:56.129Z,99049.88
2022-12-01T22:58:11.047Z,99046.97
2022-12-01T23:00:59.333Z,99048.59
2022-12-01T23:03:27.217Z,99053.97
2022-12-01T23:05:58.649Z,99049.41
2022-12-01T23:08:26.638Z,99047.78
2022-12-01T23:10:54.405Z,99042.66
2022-12-01T23:13:27.556Z,99041.00
2022-12-01T23:15:55.329Z,99042.66
2022-12-01T23:18:30.264Z,99044.75
2022-12-01T23:21:01.342Z,99042.06
2022-12-01T23:23:33.091Z,99042.06
2022-12-01T23:26:04.435Z,99039.38
2022-12-01T23:28:44.100Z,99036.13
2022-12-01T23:31:12.391Z,99035.31
2022-12-01T23:33:40.139Z,99029.16
2022-12-01T23:36:32.595Z,99028.09
2022-12-01T23:39:12.903Z,99036.38
2022-12-01T23:41:49.187Z,99031.84
2022-12-01T23:44:50.469Z,99028.09
2022-12-01T23:47:30.316Z,99031.03
2022-12-01T23:50:43.284Z,99021.09
2022-12-01T23:53:56.821Z,99027.28
2022-12-01T23:56:30.059Z,99016.78
2022-12-01T23:59:13.015Z,99025.88
